createdAt,value
2023-02-25T00:00:33.549Z,6.43
2023-02-25T00:03:01.189Z,6.43
2023-02-25T00:05:31.329Z,6.42
2023-02-25T00:07:59.856Z,6.41
2023-02-25T00:10:27.368Z,6.39
2023-02-25T00:12:54.807Z,6.37
2023-02-25T00:15:22.662Z,6.37
2023-02-25T00:17:49.973Z,6.32
2023-02-25T00:20:18.413Z,6.30
2023-02-25T00:22:45.946Z,6.29
2023-02-25T00:25:13.222Z,6.29
2023-02-25T00:27:40.455Z,6.26
2023-02-25T00:30:08.562Z,6.24
2023-02-25T00:32:35.957Z,6.19
2023-02-25T00:39:16.256Z,5.98
2023-02-25T00:41:45.581Z,5.95
2023-02-25T00:44:13.049Z,5.96
2023-02-25T00:46:40.224Z,5.94
2023-02-25T00:49:27.191Z,5.94
2023-02-25T00:51:59.984Z,5.93
2023-02-25T00:54:28.350Z,5.93
2023-02-25T00:56:58.184Z,5.94
2023-02-25T00:59:25.593Z,5.93
2023-02-25T01:01:53.298Z,5.94
2023-02-25T01:04:20.562Z,5.93
2023-02-25T01:10:56.209Z,5.84
2023-02-25T01:13:23.486Z,5.85
2023-02-25T01:15:50.662Z,5.85
2023-02-25T01:18:17.965Z,5.84
2023-02-25T01:20:45.164Z,5.81
2023-02-25T01:23:12.546Z,5.81
2023-02-25T01:25:41.034Z,5.79
2023-02-25T01:28:08.520Z,5.78
2023-02-25T01:30:38.708Z,5.78
2023-02-25T01:33:05.883Z,5.73
2023-02-25T01:35:36.074Z,5.74
2023-02-25T01:38:03.441Z,5.72
2023-02-25T01:40:31.130Z,5.67
2023-02-25T01:42:58.356Z,5.62
2023-02-25T01:45:31.020Z,5.61
2023-02-25T01:48:17.316Z,5.57
2023-02-25T01:50:54.005Z,5.57
2023-02-25T01:53:29.483Z,5.57
2023-02-25T01:55:59.916Z,5.58
2023-02-25T01:58:27.988Z,5.50
2023-02-25T02:00:56.160Z,5.45
2023-02-25T02:03:34.414Z,5.41
2023-02-25T02:06:26.407Z,5.43
2023-02-25T02:08:54.974Z,5.42
2023-02-25T02:11:22.133Z,5.43
2023-02-25T02:13:55.666Z,5.43
2023-02-25T02:17:20.352Z,5.32
2023-02-25T02:20:05.106Z,5.30
2023-02-25T02:22:48.312Z,5.30
2023-02-25T02:25:51.877Z,5.29
2023-02-25T02:28:31.159Z,5.19
2023-02-25T02:35:23.718Z,5.17
2023-02-25T02:38:33.963Z,5.20
2023-02-25T02:41:22.848Z,5.22
2023-02-25T02:44:26.995Z,5.24
2023-02-25T02:47:10.476Z,5.27
2023-02-25T02:49:57.433Z,5.29
2023-02-25T02:52:31.871Z,5.30
2023-02-25T02:59:39.020Z,5.27
2023-02-25T03:02:20.710Z,5.26
2023-02-25T03:04:53.829Z,5.27
2023-02-25T03:07:23.518Z,5.26
2023-02-25T03:09:57.196Z,5.24
2023-02-25T03:12:25.001Z,5.20
2023-02-25T03:14:52.243Z,5.17
2023-02-25T03:17:28.673Z,5.16
2023-02-25T03:20:27.222Z,5.14
2023-02-25T03:22:58.754Z,5.14
2023-02-25T03:25:41.019Z,5.13
2023-02-25T03:28:19.815Z,5.08
2023-02-25T03:31:10.248Z,4.99
2023-02-25T03:33:47.627Z,4.93
2023-02-25T03:36:40.273Z,4.87
2023-02-25T03:39:17.092Z,4.84
2023-02-25T03:41:52.329Z,4.87
2023-02-25T03:44:51.618Z,4.89
2023-02-25T03:47:22.347Z,4.87
2023-02-25T03:50:08.567Z,4.85
2023-02-25T03:52:36.567Z,4.87
2023-02-25T03:55:06.136Z,4.89
2023-02-25T03:57:41.275Z,4.93
2023-02-25T04:00:18.723Z,4.93
2023-02-25T04:02:47.732Z,4.88
2023-02-25T04:05:17.773Z,4.90
2023-02-25T04:07:45.471Z,4.90
2023-02-25T04:10:16.312Z,4.98
2023-02-25T04:12:43.601Z,4.90
2023-02-25T04:15:11.570Z,4.96
2023-02-25T04:17:39.142Z,5.02
2023-02-25T04:20:06.927Z,5.04
2023-02-25T04:22:34.218Z,5.07
2023-02-25T04:25:01.669Z,5.12
2023-02-25T04:27:28.777Z,5.13
2023-02-25T04:29:55.971Z,5.17
2023-02-25T04:32:23.387Z,5.22
2023-02-25T04:34:51.210Z,5.24
2023-02-25T04:37:18.457Z,5.29
2023-02-25T04:39:45.596Z,5.32
2023-02-25T04:42:12.766Z,5.30
2023-02-25T04:44:39.966Z,5.28
2023-02-25T04:47:07.103Z,5.29
2023-02-25T04:49:34.686Z,5.34
2023-02-25T04:52:01.868Z,5.39
2023-02-25T04:58:23.506Z,5.38
2023-02-25T05:00:50.664Z,5.42
2023-02-25T05:03:17.832Z,5.46
2023-02-25T05:05:45.037Z,5.50
2023-02-25T05:08:12.236Z,5.52
2023-02-25T05:10:39.401Z,5.50
2023-02-25T05:13:07.172Z,5.51
2023-02-25T05:15:34.311Z,5.56
2023-02-25T05:18:02.548Z,5.55
2023-02-25T05:20:30.058Z,5.54
2023-02-25T05:27:05.262Z,5.56
2023-02-25T05:29:32.409Z,5.58
2023-02-25T05:36:11.307Z,5.58
2023-02-25T05:38:38.655Z,5.59
2023-02-25T05:41:07.180Z,5.61
2023-02-25T05:43:35.745Z,5.65
2023-02-25T05:46:03.250Z,5.59
2023-02-25T05:49:16.095Z,5.59
2023-02-25T05:51:43.480Z,5.58
2023-02-25T05:58:11.364Z,5.49
2023-02-25T06:00:39.594Z,5.51
2023-02-25T06:03:07.002Z,5.50
2023-02-25T06:05:34.274Z,5.53
2023-02-25T06:08:01.703Z,5.47
2023-02-25T06:10:28.968Z,5.49
2023-02-25T06:12:56.165Z,5.59
2023-02-25T06:15:23.325Z,5.57
2023-02-25T06:17:50.557Z,5.59
2023-02-25T06:24:24.719Z,5.68
2023-02-25T06:26:52.083Z,5.71
2023-02-25T06:29:19.556Z,5.75
2023-02-25T06:31:46.934Z,5.74
2023-02-25T06:34:14.281Z,5.74
2023-02-25T06:36:41.481Z,5.72
2023-02-25T06:43:18.666Z,5.71
2023-02-25T06:45:45.892Z,5.73
2023-02-25T06:48:13.333Z,5.75
2023-02-25T06:50:41.639Z,5.73
2023-02-25T06:57:08.216Z,5.64
2023-02-25T06:59:35.381Z,5.66
2023-02-25T07:02:03.161Z,5.75
2023-02-25T07:04:30.588Z,5.72
2023-02-25T07:06:57.752Z,5.68
2023-02-25T07:09:25.499Z,5.56
2023-02-25T07:11:52.655Z,5.54
2023-02-25T07:14:19.849Z,5.57
2023-02-25T07:16:47.051Z,5.38
2023-02-25T07:19:16.265Z,5.34
2023-02-25T07:21:44.604Z,5.39
2023-02-25T07:24:13.476Z,5.35
2023-02-25T07:30:43.176Z,5.26
2023-02-25T07:33:10.416Z,5.26
2023-02-25T07:35:37.920Z,5.34
2023-02-25T07:38:05.072Z,5.42
2023-02-25T07:40:32.236Z,5.53
2023-02-25T07:42:59.399Z,5.63
2023-02-25T07:45:26.640Z,5.68
2023-02-25T07:47:54.295Z,5.77
2023-02-25T07:50:21.926Z,5.85
2023-02-25T07:52:49.553Z,5.84
2023-02-25T07:59:23.023Z,5.89
2023-02-25T08:01:50.254Z,5.94
2023-02-25T08:04:17.507Z,5.88
2023-02-25T08:07:22.196Z,5.90
2023-02-25T08:09:49.337Z,5.91
2023-02-25T08:12:16.569Z,5.91
2023-02-25T08:14:43.879Z,6.00
2023-02-25T08:17:11.026Z,5.86
2023-02-25T08:19:38.146Z,5.95
2023-02-25T08:26:15.243Z,6.06
2023-02-25T08:36:55.013Z,6.21
2023-02-25T08:39:22.271Z,6.28
2023-02-25T08:49:56.211Z,6.39
2023-02-25T08:52:23.394Z,6.46
2023-02-25T08:54:50.534Z,6.46
2023-02-25T08:57:17.931Z,6.40
2023-02-25T08:59:45.116Z,6.36
2023-02-25T09:02:12.777Z,6.44
2023-02-25T09:04:42.007Z,6.57
2023-02-25T09:07:09.749Z,6.60
2023-02-25T09:13:43.289Z,6.62
2023-02-25T09:16:11.609Z,6.64
2023-02-25T09:18:38.855Z,6.66
2023-02-25T09:25:12.053Z,6.90
2023-02-25T09:27:39.525Z,7.00
2023-02-25T09:30:09.102Z,7.08
2023-02-25T09:36:42.777Z,7.25
2023-02-25T09:39:10.039Z,7.17
2023-02-25T09:42:20.635Z,7.24
2023-02-25T09:44:51.777Z,7.31
2023-02-25T09:47:58.548Z,7.36
2023-02-25T09:50:45.652Z,7.37
2023-02-25T09:53:40.066Z,7.46
2023-02-25T09:56:09.121Z,7.49
2023-02-25T09:58:41.679Z,7.57
2023-02-25T10:01:51.645Z,7.66
2023-02-25T10:05:02.901Z,7.73
2023-02-25T10:07:51.882Z,7.79
2023-02-25T10:10:36.733Z,7.81
2023-02-25T10:14:00.267Z,7.88
2023-02-25T10:16:59.392Z,7.90
2023-02-25T10:20:26.224Z,7.95
2023-02-25T10:23:28.065Z,7.98
2023-02-25T10:30:27.945Z,8.04
2023-02-25T10:37:06.051Z,8.17
2023-02-25T10:39:34.270Z,8.22
2023-02-25T10:42:01.476Z,8.38
2023-02-25T10:44:28.577Z,8.54
2023-02-25T10:47:23.807Z,8.54
2023-02-25T10:50:17.447Z,8.63
2023-02-25T10:56:51.564Z,8.68
2023-02-25T10:59:31.240Z,8.76
2023-02-25T11:02:01.363Z,8.84
2023-02-25T11:08:47.653Z,8.89
2023-02-25T11:11:26.117Z,8.95
2023-02-25T11:14:15.196Z,8.99
2023-02-25T11:16:45.704Z,9.04
2023-02-25T11:19:28.900Z,9.07
2023-02-25T11:21:59.864Z,9.12
2023-02-25T11:24:34.597Z,9.26
2023-02-25T11:27:05.182Z,9.48
2023-02-25T11:33:40.618Z,12.08
2023-02-25T11:36:09.894Z,12.86
2023-02-25T11:38:43.174Z,12.90
2023-02-25T11:41:24.044Z,13.54
2023-02-25T11:43:51.694Z,14.24
2023-02-25T11:46:26.552Z,14.62
2023-02-25T11:53:44.879Z,16.66
2023-02-25T12:00:42.091Z,17.98
2023-02-25T12:03:18.389Z,17.74
2023-02-25T12:10:36.598Z,18.46
2023-02-25T12:13:33.286Z,17.92
2023-02-25T12:16:48.018Z,17.69
2023-02-25T12:19:45.650Z,16.63
2023-02-25T12:22:51.698Z,15.94
2023-02-25T12:25:24.565Z,15.96
2023-02-25T12:28:03.431Z,16.31
2023-02-25T12:31:09.269Z,16.84
2023-02-25T12:38:17.496Z,17.90
2023-02-25T12:40:50.461Z,18.27
2023-02-25T12:43:32.649Z,18.45
2023-02-25T12:46:08.976Z,18.49
2023-02-25T12:49:15.952Z,18.50
2023-02-25T12:52:07.213Z,18.20
2023-02-25T12:54:59.313Z,18.24
2023-02-25T12:57:46.146Z,17.56
2023-02-25T13:04:42.632Z,17.11
2023-02-25T13:07:21.498Z,17.24
2023-02-25T13:09:51.611Z,17.28
2023-02-25T13:13:10.925Z,17.15
2023-02-25T13:16:30.997Z,16.94
2023-02-25T13:19:32.414Z,16.95
2023-02-25T13:22:14.184Z,16.72
2023-02-25T13:25:29.233Z,15.89
2023-02-25T13:28:44.949Z,15.23
2023-02-25T13:35:39.122Z,14.83
2023-02-25T13:38:53.782Z,14.92
2023-02-25T13:41:48.537Z,15.00
2023-02-25T13:49:03.510Z,14.98
2023-02-25T13:52:19.285Z,15.32
2023-02-25T13:55:24.194Z,15.56
2023-02-25T13:58:01.994Z,15.66
2023-02-25T14:00:54.032Z,15.84
2023-02-25T14:03:59.758Z,15.89
2023-02-25T14:07:10.414Z,15.99
2023-02-25T14:10:00.581Z,15.97
2023-02-25T14:12:39.859Z,15.85
2023-02-25T14:15:54.777Z,15.70
2023-02-25T14:19:05.070Z,15.65
2023-02-25T14:30:19.468Z,15.69
2023-02-25T14:33:03.808Z,15.48
2023-02-25T14:35:58.866Z,15.17
2023-02-25T14:39:28.076Z,14.67
2023-02-25T14:42:41.989Z,14.29
2023-02-25T14:45:09.102Z,13.81
2023-02-25T14:47:40.752Z,13.69
2023-02-25T14:58:49.950Z,13.05
2023-02-25T15:02:16.154Z,12.68
2023-02-25T15:05:01.808Z,12.47
2023-02-25T15:08:01.328Z,12.35
2023-02-25T15:10:47.490Z,12.17
2023-02-25T15:13:39.308Z,11.97
2023-02-25T15:17:02.879Z,11.89
2023-02-25T15:19:53.674Z,11.77
2023-02-25T15:23:10.718Z,11.54
2023-02-25T15:25:38.602Z,11.58
2023-02-25T15:28:30.618Z,11.49
2023-02-25T15:35:00.717Z,11.10
2023-02-25T15:37:55.764Z,10.98
2023-02-25T15:40:23.173Z,11.00
2023-02-25T15:43:12.709Z,11.01
2023-02-25T15:45:49.137Z,11.01
2023-02-25T15:48:24.047Z,10.86
2023-02-25T15:50:53.020Z,10.85
2023-02-25T15:53:23.346Z,10.72
2023-02-25T15:55:52.906Z,10.72
2023-02-25T15:58:26.278Z,10.68
2023-02-25T16:01:07.853Z,10.65
2023-02-25T16:03:35.184Z,10.65
2023-02-25T16:10:35.256Z,10.49
2023-02-25T16:13:03.680Z,10.42
2023-02-25T16:15:47.146Z,10.41
2023-02-25T16:18:37.550Z,10.35
2023-02-25T16:25:05.678Z,10.24
2023-02-25T16:28:17.618Z,10.25
2023-02-25T16:31:17.421Z,10.21
2023-02-25T16:34:23.089Z,10.18
2023-02-25T16:37:07.731Z,10.14
2023-02-25T16:39:37.461Z,10.05
2023-02-25T16:42:12.635Z,10.00
2023-02-25T16:48:45.909Z,9.80
2023-02-25T16:51:31.739Z,9.89
2023-02-25T16:54:20.849Z,9.88
2023-02-25T16:56:54.081Z,9.89
2023-02-25T16:59:23.474Z,9.90
2023-02-25T17:02:22.949Z,9.82
2023-02-25T17:08:57.252Z,9.68
2023-02-25T17:11:26.112Z,9.66
2023-02-25T17:13:58.312Z,9.57
2023-02-25T17:16:38.347Z,9.47
2023-02-25T17:19:10.289Z,9.39
2023-02-25T17:25:49.045Z,9.09
2023-02-25T17:28:32.121Z,9.02
2023-02-25T17:31:19.534Z,8.96
2023-02-25T17:34:03.254Z,8.88
2023-02-25T17:40:30.838Z,8.61
2023-02-25T17:47:50.040Z,8.46
2023-02-25T17:50:31.984Z,8.46
2023-02-25T17:53:00.015Z,8.37
2023-02-25T18:00:10.122Z,8.19
2023-02-25T18:02:41.759Z,8.13
2023-02-25T18:05:14.983Z,8.12
2023-02-25T18:07:45.263Z,8.08
2023-02-25T18:14:42.416Z,7.99
2023-02-25T18:25:44.672Z,7.83
2023-02-25T18:28:22.828Z,7.80
2023-02-25T18:30:50.929Z,7.82
2023-02-25T18:33:19.273Z,7.80
2023-02-25T18:35:48.587Z,7.78
2023-02-25T18:38:26.492Z,7.80
2023-02-25T18:40:55.458Z,7.79
2023-02-25T18:43:45.023Z,7.78
2023-02-25T18:46:12.410Z,7.74
2023-02-25T18:48:39.860Z,7.71
2023-02-25T18:51:13.656Z,7.68
2023-02-25T18:53:41.686Z,7.67
2023-02-25T18:56:16.640Z,7.63
2023-02-25T18:58:44.721Z,7.59
2023-02-25T19:01:34.352Z,7.57
2023-02-25T19:04:08.168Z,7.54
2023-02-25T19:06:35.685Z,7.52
2023-02-25T19:09:03.761Z,7.53
2023-02-25T19:11:35.664Z,7.55
2023-02-25T19:14:05.403Z,7.58
2023-02-25T19:16:32.665Z,7.57
2023-02-25T19:19:00.494Z,7.54
2023-02-25T19:21:28.215Z,7.55
2023-02-25T19:23:55.868Z,7.55
2023-02-25T19:26:23.641Z,7.58
2023-02-25T19:28:50.996Z,7.55
2023-02-25T19:31:18.243Z,7.50
2023-02-25T19:33:45.686Z,7.53
2023-02-25T19:36:13.043Z,7.53
2023-02-25T19:38:40.432Z,7.53
2023-02-25T19:41:07.862Z,7.53
2023-02-25T19:43:36.406Z,7.50
2023-02-25T19:46:08.727Z,7.54
2023-02-25T19:48:36.277Z,7.44
2023-02-25T19:51:10.727Z,7.46
2023-02-25T19:53:38.638Z,7.31
2023-02-25T19:56:06.906Z,7.16
2023-02-25T19:58:34.353Z,7.11
2023-02-25T20:01:07.989Z,7.16
2023-02-25T20:03:38.752Z,7.07
2023-02-25T20:10:26.162Z,6.92
2023-02-25T20:12:54.198Z,6.91
2023-02-25T20:15:23.118Z,6.99
2023-02-25T20:17:50.762Z,6.96
2023-02-25T20:24:37.075Z,6.54
2023-02-25T20:27:04.713Z,6.64
2023-02-25T20:29:32.676Z,6.48
2023-02-25T20:32:00.764Z,6.38
2023-02-25T20:34:28.685Z,6.24
2023-02-25T20:41:15.877Z,6.33
2023-02-25T20:43:43.211Z,6.36
2023-02-25T20:46:28.743Z,6.38
2023-02-25T20:48:56.514Z,6.42
2023-02-25T20:51:24.307Z,6.45
2023-02-25T20:53:52.010Z,6.39
2023-02-25T20:56:25.583Z,6.48
2023-02-25T20:58:53.791Z,6.46
2023-02-25T21:01:22.324Z,6.45
2023-02-25T21:03:49.770Z,6.45
2023-02-25T21:06:18.819Z,6.43
2023-02-25T21:08:46.155Z,6.45
2023-02-25T21:11:13.530Z,6.41
2023-02-25T21:13:40.909Z,6.35
2023-02-25T21:16:08.894Z,6.26
2023-02-25T21:18:36.269Z,6.11
2023-02-25T21:21:08.065Z,6.06
2023-02-25T21:23:38.341Z,5.71
2023-02-25T21:26:07.992Z,5.72
2023-02-25T21:28:36.507Z,5.81
2023-02-25T21:31:13.893Z,5.92
2023-02-25T21:33:42.223Z,5.92
2023-02-25T21:36:11.308Z,5.70
2023-02-25T21:38:39.280Z,5.53
2023-02-25T21:41:11.630Z,5.55
2023-02-25T21:43:40.450Z,5.60
2023-02-25T21:46:12.867Z,5.42
2023-02-25T21:48:44.758Z,5.23
2023-02-25T21:51:22.995Z,5.31
2023-02-25T21:53:58.835Z,5.31
2023-02-25T21:56:28.494Z,5.31
2023-02-25T21:58:59.552Z,5.39
2023-02-25T22:01:32.070Z,5.43
2023-02-25T22:03:59.563Z,5.47
2023-02-25T22:06:28.145Z,5.49
2023-02-25T22:08:56.793Z,5.46
2023-02-25T22:11:28.954Z,5.51
2023-02-25T22:13:57.822Z,5.40
2023-02-25T22:16:25.587Z,5.25
2023-02-25T22:19:05.850Z,5.21
2023-02-25T22:21:34.716Z,5.19
2023-02-25T22:24:04.843Z,5.15
2023-02-25T22:30:38.764Z,5.08
2023-02-25T22:33:05.967Z,4.99
2023-02-25T22:35:33.472Z,4.92
2023-02-25T22:38:00.589Z,4.82
2023-02-25T22:45:32.786Z,4.88
2023-02-25T22:47:59.962Z,4.79
2023-02-25T22:54:26.847Z,4.76
2023-02-25T22:56:54.239Z,4.78
2023-02-25T23:07:18.293Z,4.54
2023-02-25T23:09:45.420Z,4.51
2023-02-25T23:12:12.577Z,4.60
2023-02-25T23:14:39.790Z,4.66
2023-02-25T23:17:06.930Z,4.69
2023-02-25T23:19:34.496Z,4.66
2023-02-25T23:22:02.109Z,4.76
2023-02-25T23:28:36.580Z,4.71
2023-02-25T23:31:05.120Z,4.64
2023-02-25T23:33:33.509Z,4.68
2023-02-25T23:36:04.776Z,4.77
2023-02-25T23:38:31.996Z,4.69
2023-02-25T23:41:00.387Z,4.58
2023-02-25T23:43:27.920Z,4.62
2023-02-25T23:45:55.069Z,4.62
2023-02-25T23:48:22.544Z,4.62
2023-02-25T23:50:49.878Z,4.60
2023-02-25T23:53:17.147Z,4.53
2023-02-25T23:55:44.372Z,4.44
2023-02-25T23:58:11.505Z,4.42
